sensor_id;sensor_type;location;lat;lon;timestamp;P1;durP1;ratioP1;P2;durP2;ratioP2
69301;SDS011;56689;47.842;8.974;2024-01-15T02:47:40;16.73;;;5.78;;
69301;SDS011;56689;47.842;8.974;2024-01-15T02:50:07;14.60;;;5.57;;
69301;SDS011;56689;47.842;8.974;2024-01-15T02:52:35;16.23;;;5.60;;
69301;SDS011;56689;47.842;8.974;2024-01-15T02:55:08;12.25;;;5.20;;
69301;SDS011;56689;47.842;8.974;2024-01-15T02:58:23;13.07;;;5.22;;
69301;SDS011;56689;47.842;8.974;2024-01-15T03:00:51;15.70;;;5.60;;
69301;SDS011;56689;47.842;8.974;2024-01-15T03:03:18;13.07;;;4.63;;
69301;SDS011;56689;47.842;8.974;2024-01-15T03:05:46;15.98;;;5.40;;
69301;SDS011;56689;47.842;8.974;2024-01-15T03:08:14;14.98;;;5.45;;
69301;SDS011;56689;47.842;8.974;2024-01-15T03:10:39;14.77;;;5.30;;
69301;SDS011;56689;47.842;8.974;2024-01-15T03:13:05;12.33;;;4.60;;
69301;SDS011;56689;47.842;8.974;2024-01-15T03:15:31;14.85;;;5.47;;
69301;SDS011;56689;47.842;8.974;2024-01-15T03:17:56;13.90;;;4.80;;
69301;SDS011;56689;47.842;8.974;2024-01-15T03:20:22;16.03;;;4.70;;
69301;SDS011;56689;47.842;8.974;2024-01-15T03:22:47;12.97;;;5.40;;
69301;SDS011;56689;47.842;8.974;2024-01-15T03:25:15;12.82;;;4.55;;
69301;SDS011;56689;47.842;8.974;2024-01-15T03:27:41;13.53;;;4.97;;
69301;SDS011;56689;47.842;8.974;2024-01-15T03:30:06;13.48;;;4.15;;
69301;SDS011;56689;47.842;8.974;2024-01-15T03:32:32;12.90;;;4.57;;
69301;SDS011;56689;47.842;8.974;2024-01-15T03:34:58;14.67;;;4.87;;
69301;SDS011;56689;47.842;8.974;2024-01-15T03:37:23;13.97;;;4.87;;
69301;SDS011;56689;47.842;8.974;2024-01-15T03:39:49;12.43;;;4.50;;
69301;SDS011;56689;47.842;8.974;2024-01-15T03:42:14;12.00;;;4.65;;
69301;SDS011;56689;47.842;8.974;2024-01-15T03:44:42;13.70;;;5.05;;
69301;SDS011;56689;47.842;8.974;2024-01-15T03:47:12;15.73;;;4.60;;
69301;SDS011;56689;47.842;8.974;2024-01-15T03:49:38;13.25;;;4.80;;
69301;SDS011;56689;47.842;8.974;2024-01-15T03:52:06;12.23;;;4.10;;
69301;SDS011;56689;47.842;8.974;2024-01-15T03:54:34;15.57;;;5.25;;
69301;SDS011;56689;47.842;8.974;2024-01-15T03:57:05;13.23;;;5.00;;
69301;SDS011;56689;47.842;8.974;2024-01-15T03:59:31;12.60;;;3.87;;
69301;SDS011;56689;47.842;8.974;2024-01-15T04:01:56;15.37;;;4.50;;
69301;SDS011;56689;47.842;8.974;2024-01-15T04:04:24;13.15;;;4.68;;
69301;SDS011;56689;47.842;8.974;2024-01-15T04:06:49;15.20;;;5.23;;
69301;SDS011;56689;47.842;8.974;2024-01-15T04:09:15;10.43;;;3.80;;
69301;SDS011;56689;47.842;8.974;2024-01-15T04:11:43;15.83;;;5.37;;
69301;SDS011;56689;47.842;8.974;2024-01-15T04:14:08;15.48;;;5.05;;
69301;SDS011;56689;47.842;8.974;2024-01-15T04:16:34;12.87;;;4.47;;
69301;SDS011;56689;47.842;8.974;2024-01-15T04:19:00;16.43;;;4.90;;
69301;SDS011;56689;47.842;8.974;2024-01-15T04:21:28;17.92;;;4.93;;
69301;SDS011;56689;47.842;8.974;2024-01-15T04:23:53;15.47;;;4.80;;
69301;SDS011;56689;47.842;8.974;2024-01-15T04:26:19;15.30;;;5.28;;
69301;SDS011;56689;47.842;8.974;2024-01-15T04:28:52;16.77;;;4.73;;
69301;SDS011;56689;47.842;8.974;2024-01-15T04:31:21;16.60;;;4.75;;
69301;SDS011;56689;47.842;8.974;2024-01-15T04:33:48;13.93;;;4.47;;
69301;SDS011;56689;47.842;8.974;2024-01-15T04:36:14;14.37;;;5.20;;
69301;SDS011;56689;47.842;8.974;2024-01-15T04:38:42;14.98;;;4.68;;
69301;SDS011;56689;47.842;8.974;2024-01-15T04:41:14;16.43;;;5.07;;
69301;SDS011;56689;47.842;8.974;2024-01-15T04:43:41;15.23;;;5.30;;
69301;SDS011;56689;47.842;8.974;2024-01-15T04:46:07;12.17;;;4.73;;
69301;SDS011;56689;47.842;8.974;2024-01-15T04:48:32;13.88;;;4.80;;
69301;SDS011;56689;47.842;8.974;2024-01-15T04:50:58;13.20;;;4.43;;
69301;SDS011;56689;47.842;8.974;2024-01-15T04:53:25;13.43;;;4.70;;
69301;SDS011;56689;47.842;8.974;2024-01-15T04:55:50;13.00;;;4.63;;
69301;SDS011;56689;47.842;8.974;2024-01-15T04:58:16;12.70;;;4.57;;
69301;SDS011;56689;47.842;8.974;2024-01-15T05:00:41;15.67;;;5.03;;
69301;SDS011;56689;47.842;8.974;2024-01-15T05:03:07;12.23;;;4.25;;
69301;SDS011;56689;47.842;8.974;2024-01-15T05:05:33;12.70;;;4.60;;
69301;SDS011;56689;47.842;8.974;2024-01-15T05:07:58;12.20;;;4.50;;
69301;SDS011;56689;47.842;8.974;2024-01-15T05:10:24;14.63;;;4.90;;
69301;SDS011;56689;47.842;8.974;2024-01-15T05:12:55;12.05;;;4.22;;
69301;SDS011;56689;47.842;8.974;2024-01-15T05:15:21;12.37;;;5.07;;
69301;SDS011;56689;47.842;8.974;2024-01-15T05:17:51;11.57;;;4.32;;
69301;SDS011;56689;47.842;8.974;2024-01-15T05:20:17;12.37;;;4.60;;
69301;SDS011;56689;47.842;8.974;2024-01-15T05:22:43;13.10;;;4.55;;
69301;SDS011;56689;47.842;8.974;2024-01-15T05:25:08;13.03;;;4.10;;
69301;SDS011;56689;47.842;8.974;2024-01-15T05:27:34;14.77;;;4.45;;
69301;SDS011;56689;47.842;8.974;2024-01-15T05:29:59;14.00;;;4.70;;
69301;SDS011;56689;47.842;8.974;2024-01-15T05:32:25;14.48;;;5.13;;
69301;SDS011;56689;47.842;8.974;2024-01-15T05:34:50;14.77;;;5.38;;
69301;SDS011;56689;47.842;8.974;2024-01-15T05:37:16;14.33;;;5.60;;
69301;SDS011;56689;47.842;8.974;2024-01-15T05:39:41;15.90;;;6.17;;
69301;SDS011;56689;47.842;8.974;2024-01-15T05:42:07;17.40;;;6.40;;
69301;SDS011;56689;47.842;8.974;2024-01-15T05:44:32;19.30;;;6.30;;
69301;SDS011;56689;47.842;8.974;2024-01-15T05:47:00;22.23;;;6.80;;
69301;SDS011;56689;47.842;8.974;2024-01-15T05:49:26;18.65;;;6.30;;
69301;SDS011;56689;47.842;8.974;2024-01-15T05:51:51;16.30;;;6.00;;
69301;SDS011;56689;47.842;8.974;2024-01-15T05:54:18;17.83;;;6.00;;
69301;SDS011;56689;47.842;8.974;2024-01-15T05:56:47;14.13;;;4.80;;
69301;SDS011;56689;47.842;8.974;2024-01-15T05:59:12;13.45;;;4.82;;
69301;SDS011;56689;47.842;8.974;2024-01-15T06:01:38;15.90;;;5.40;;
69301;SDS011;56689;47.842;8.974;2024-01-15T06:04:04;14.70;;;5.30;;
69301;SDS011;56689;47.842;8.974;2024-01-15T06:06:31;14.40;;;4.90;;
69301;SDS011;56689;47.842;8.974;2024-01-15T06:08:57;16.08;;;5.63;;
69301;SDS011;56689;47.842;8.974;2024-01-15T06:11:29;14.57;;;4.67;;
69301;SDS011;56689;47.842;8.974;2024-01-15T06:13:56;13.77;;;4.85;;
69301;SDS011;56689;47.842;8.974;2024-01-15T06:16:23;14.05;;;4.80;;
69301;SDS011;56689;47.842;8.974;2024-01-15T06:18:49;13.10;;;4.33;;
69301;SDS011;56689;47.842;8.974;2024-01-15T06:21:15;12.65;;;4.88;;
69301;SDS011;56689;47.842;8.974;2024-01-15T06:23:41;16.75;;;4.75;;
69301;SDS011;56689;47.842;8.974;2024-01-15T06:26:11;12.13;;;4.50;;
69301;SDS011;56689;47.842;8.974;2024-01-15T06:28:37;15.47;;;5.30;;
69301;SDS011;56689;47.842;8.974;2024-01-15T06:31:02;13.45;;;4.90;;
69301;SDS011;56689;47.842;8.974;2024-01-15T06:33:28;16.40;;;5.40;;
69301;SDS011;56689;47.842;8.974;2024-01-15T06:35:56;14.07;;;5.40;;
69301;SDS011;56689;47.842;8.974;2024-01-15T06:38:22;16.38;;;5.00;;
69301;SDS011;56689;47.842;8.974;2024-01-15T06:40:50;15.90;;;5.17;;
69301;SDS011;56689;47.842;8.974;2024-01-15T06:43:22;16.42;;;4.82;;
69301;SDS011;56689;47.842;8.974;2024-01-15T06:46:04;16.00;;;5.70;;
69301;SDS011;56689;47.842;8.974;2024-01-15T06:48:34;11.57;;;4.72;;
69301;SDS011;56689;47.842;8.974;2024-01-15T06:51:03;14.63;;;5.50;;
69301;SDS011;56689;47.842;8.974;2024-01-15T06:53:29;14.07;;;5.13;;
69301;SDS011;56689;47.842;8.974;2024-01-15T06:55:57;14.77;;;5.93;;
69301;SDS011;56689;47.842;8.974;2024-01-15T06:58:25;13.02;;;5.25;;
69301;SDS011;56689;47.842;8.974;2024-01-15T07:00:50;14.57;;;5.27;;
69301;SDS011;56689;47.842;8.974;2024-01-15T07:03:16;14.43;;;5.20;;
69301;SDS011;56689;47.842;8.974;2024-01-15T07:05:44;12.33;;;5.23;;
69301;SDS011;56689;47.842;8.974;2024-01-15T07:08:12;13.15;;;5.05;;
69301;SDS011;56689;47.842;8.974;2024-01-15T07:10:40;13.40;;;4.67;;
69301;SDS011;56689;47.842;8.974;2024-01-15T07:13:11;9.60;;;4.32;;
69301;SDS011;56689;47.842;8.974;2024-01-15T07:15:37;12.13;;;4.43;;
69301;SDS011;56689;47.842;8.974;2024-01-15T07:18:06;14.07;;;4.60;;
69301;SDS011;56689;47.842;8.974;2024-01-15T07:20:31;11.77;;;4.50;;
69301;SDS011;56689;47.842;8.974;2024-01-15T07:22:57;12.90;;;4.55;;
69301;SDS011;56689;47.842;8.974;2024-01-15T07:25:25;10.00;;;3.43;;
69301;SDS011;56689;47.842;8.974;2024-01-15T07:27:53;8.30;;;2.58;;
69301;SDS011;56689;47.842;8.974;2024-01-15T07:30:19;8.63;;;2.67;;
69301;SDS011;56689;47.842;8.974;2024-01-15T07:32:55;6.88;;;2.50;;
69301;SDS011;56689;47.842;8.974;2024-01-15T07:35:48;6.25;;;2.30;;
69301;SDS011;56689;47.842;8.974;2024-01-15T07:38:14;7.28;;;2.55;;
69301;SDS011;56689;47.842;8.974;2024-01-15T07:40:40;7.47;;;2.37;;
69301;SDS011;56689;47.842;8.974;2024-01-15T07:43:05;8.03;;;2.47;;
69301;SDS011;56689;47.842;8.974;2024-01-15T07:45:54;6.43;;;2.17;;
69301;SDS011;56689;47.842;8.974;2024-01-15T07:48:20;7.35;;;2.22;;
69301;SDS011;56689;47.842;8.974;2024-01-15T07:51:07;5.60;;;2.07;;
69301;SDS011;56689;47.842;8.974;2024-01-15T07:53:41;7.03;;;1.95;;
69301;SDS011;56689;47.842;8.974;2024-01-15T09:04:53;7.45;;;2.40;;
69301;SDS011;56689;47.842;8.974;2024-01-15T09:07:20;6.72;;;2.83;;
69301;SDS011;56689;47.842;8.974;2024-01-15T09:09:46;7.80;;;2.90;;
69301;SDS011;56689;47.842;8.974;2024-01-15T09:12:13;6.80;;;2.47;;
69301;SDS011;56689;47.842;8.974;2024-01-15T09:14:43;6.85;;;2.60;;
69301;SDS011;56689;47.842;8.974;2024-01-15T09:17:09;6.22;;;2.20;;
69301;SDS011;56689;47.842;8.974;2024-01-15T09:19:35;6.93;;;2.17;;
69301;SDS011;56689;47.842;8.974;2024-01-15T09:22:09;6.10;;;2.10;;
69301;SDS011;56689;47.842;8.974;2024-01-15T09:24:40;7.40;;;2.70;;
69301;SDS011;56689;47.842;8.974;2024-01-15T09:27:18;6.30;;;2.45;;
69301;SDS011;56689;47.842;8.974;2024-01-15T09:30:06;5.72;;;1.98;;
69301;SDS011;56689;47.842;8.974;2024-01-15T09:32:39;5.78;;;2.03;;
69301;SDS011;56689;47.842;8.974;2024-01-15T09:35:06;9.00;;;2.77;;
69301;SDS011;56689;47.842;8.974;2024-01-15T09:37:35;8.30;;;2.90;;
69301;SDS011;56689;47.842;8.974;2024-01-15T09:40:13;9.13;;;3.25;;
69301;SDS011;56689;47.842;8.974;2024-01-15T09:43:03;19.95;;;8.57;;
69301;SDS011;56689;47.842;8.974;2024-01-15T09:45:38;9.18;;;3.78;;
69301;SDS011;56689;47.842;8.974;2024-01-15T09:48:09;6.47;;;2.27;;
69301;SDS011;56689;47.842;8.974;2024-01-15T09:50:50;6.20;;;2.53;;
69301;SDS011;56689;47.842;8.974;2024-01-15T09:53:24;11.35;;;5.15;;
69301;SDS011;56689;47.842;8.974;2024-01-15T09:56:20;12.27;;;5.50;;
69301;SDS011;56689;47.842;8.974;2024-01-15T09:58:59;6.60;;;2.65;;
69301;SDS011;56689;47.842;8.974;2024-01-15T10:01:36;4.93;;;2.13;;
69301;SDS011;56689;47.842;8.974;2024-01-15T10:04:35;5.97;;;1.90;;
69301;SDS011;56689;47.842;8.974;2024-01-15T10:07:12;5.93;;;2.47;;
69301;SDS011;56689;47.842;8.974;2024-01-15T10:09:47;5.88;;;2.38;;
69301;SDS011;56689;47.842;8.974;2024-01-15T10:15:10;10.13;;;3.07;;
69301;SDS011;56689;47.842;8.974;2024-01-15T10:17:38;8.57;;;3.50;;
69301;SDS011;56689;47.842;8.974;2024-01-15T10:20:11;9.50;;;3.38;;
69301;SDS011;56689;47.842;8.974;2024-01-15T10:22:42;9.10;;;3.85;;
69301;SDS011;56689;47.842;8.974;2024-01-15T10:25:12;10.27;;;4.22;;
69301;SDS011;56689;47.842;8.974;2024-01-15T10:27:43;9.10;;;3.50;;
69301;SDS011;56689;47.842;8.974;2024-01-15T10:30:10;11.75;;;4.07;;
69301;SDS011;56689;47.842;8.974;2024-01-15T10:32:40;12.85;;;4.43;;
69301;SDS011;56689;47.842;8.974;2024-01-15T10:35:33;13.40;;;4.10;;
69301;SDS011;56689;47.842;8.974;2024-01-15T10:38:09;10.85;;;4.28;;
69301;SDS011;56689;47.842;8.974;2024-01-15T10:41:05;11.73;;;4.60;;
69301;SDS011;56689;47.842;8.974;2024-01-15T10:47:14;14.02;;;4.60;;
69301;SDS011;56689;47.842;8.974;2024-01-15T10:49:41;11.52;;;4.07;;
69301;SDS011;56689;47.842;8.974;2024-01-15T10:52:16;11.70;;;4.22;;
69301;SDS011;56689;47.842;8.974;2024-01-15T10:54:53;11.47;;;4.13;;
69301;SDS011;56689;47.842;8.974;2024-01-15T10:57:40;11.70;;;4.60;;
69301;SDS011;56689;47.842;8.974;2024-01-15T15:20:42;8.25;;;3.03;;
69301;SDS011;56689;47.842;8.974;2024-01-15T15:30:56;9.00;;;3.63;;
69301;SDS011;56689;47.842;8.974;2024-01-15T15:34:19;7.82;;;3.28;;
69301;SDS011;56689;47.842;8.974;2024-01-15T15:37:22;6.95;;;3.08;;
69301;SDS011;56689;47.842;8.974;2024-01-15T15:40:49;10.10;;;3.60;;
69301;SDS011;56689;47.842;8.974;2024-01-15T15:43:23;8.38;;;2.65;;
